This is the latest recevied weather packets stored in our database for station/object K6GMW. If no packets are shown the sender has not sent any weather packets the latest 10 day(s).
| Time | Temp. | Humidity | Pressure | Rain* | Wind** | Luminosity | Snow |
|---|---|---|---|---|---|---|---|
| 1788020402 | 34.44° C | 45% | 1019.5 hPa | 0 mm | - | 811 W/m² | - |
| 1788020099 | 33.89° C | 45% | 1019.6 hPa | 0 mm | - | 800 W/m² | - |
| 1788019798 | 33.89° C | 48% | 1019.6 hPa | 0 mm | - | 786 W/m² | - |
| 1788019498 | 33.89° C | 48% | 1019.4 hPa | 0 mm | - | 778 W/m² | - |
| 1788019196 | 33.89° C | 49% | 1019.6 hPa | 0 mm | - | 769 W/m² | - |
| 1788018896 | 33.89° C | 48% | 1019.7 hPa | 0 mm | - | 752 W/m² | - |
| 1788018591 | 34.44° C | 48% | 1019.6 hPa | 0 mm | - | 739 W/m² | - |
| 1788018290 | 33.89° C | 49% | 1019.7 hPa | 0 mm | - | 723 W/m² | - |
| 1788017986 | 33.33° C | 51% | 1019.8 hPa | 0 mm | - | 711 W/m² | - |
| 1788017682 | 32.78° C | 54% | 1019.6 hPa | 0 mm | - | 699 W/m² | - |
| 1788017378 | 33.33° C | 52% | 1019.7 hPa | 0 mm | - | 686 W/m² | - |
| 1788017075 | 32.78° C | 52% | 1019.7 hPa | 0 mm | - | 672 W/m² | - |
| 1788016774 | 33.33° C | 52% | 1019.6 hPa | 0 mm | - | 654 W/m² | - |
| 1788016472 | 32.22° C | 55% | 1019.6 hPa | 0 mm | - | 638 W/m² | - |
| 1788016167 | 32.22° C | 55% | 1019.9 hPa | 0 mm | - | 620 W/m² | - |
| 1788015866 | 32.22° C | 55% | 1019.8 hPa | 0 mm | - | 605 W/m² | - |
| 1788015561 | 31.67° C | 57% | 1019.9 hPa | 0 mm | - | 588 W/m² | - |
| 1788015256 | 31.67° C | 59% | 1019.7 hPa | 0 mm | - | 572 W/m² | - |
| 1788014955 | 31.67° C | 58% | 1019.8 hPa | 0 mm | - | 550 W/m² | - |
| 1788014654 | 31.11° C | 61% | 1019.8 hPa | 0 mm | - | 531 W/m² | - |
| 1788014350 | 30.56° C | 61% | 1020 hPa | 0 mm | - | 513 W/m² | - |
| 1788014045 | 30° C | 64% | 1020 hPa | 0 mm | - | 494 W/m² | - |
| 1788013744 | 30° C | 62% | 1019.7 hPa | 0 mm | - | 475 W/m² | - |
| 1788013444 | 30° C | 64% | 1020 hPa | 0 mm | - | 457 W/m² | - |
| 1788013143 | 30° C | 65% | 1019.8 hPa | 0 mm | - | 440 W/m² | - |
* Rain latest hour (hover to see other rain measurements)
** Current wind speed in m/s (hover to see current wind gust speed)